sensor_id;sensor_type;location;lat;lon;timestamp;P1;durP1;ratioP1;P2;durP2;ratioP2
17985;SDS011;9118;48.122;11.546;2023-07-29T00:00:13;4.53;;;4.07;;
17985;SDS011;9118;48.122;11.546;2023-07-29T00:02:40;6.33;;;5.37;;
17985;SDS011;9118;48.122;11.546;2023-07-29T00:05:07;5.97;;;4.13;;
17985;SDS011;9118;48.122;11.546;2023-07-29T00:07:37;6.53;;;4.33;;
17985;SDS011;9118;48.122;11.546;2023-07-29T00:10:05;8.13;;;4.00;;
17985;SDS011;9118;48.122;11.546;2023-07-29T00:12:34;4.73;;;3.67;;
17985;SDS011;9118;48.122;11.546;2023-07-29T00:15:01;5.33;;;3.80;;
17985;SDS011;9118;48.122;11.546;2023-07-29T00:17:29;5.33;;;4.00;;
17985;SDS011;9118;48.122;11.546;2023-07-29T00:19:55;5.07;;;3.90;;
17985;SDS011;9118;48.122;11.546;2023-07-29T00:22:22;3.73;;;3.33;;
17985;SDS011;9118;48.122;11.546;2023-07-29T00:24:51;4.60;;;4.20;;
17985;SDS011;9118;48.122;11.546;2023-07-29T00:27:20;5.03;;;4.27;;
17985;SDS011;9118;48.122;11.546;2023-07-29T00:29:48;4.13;;;3.73;;
17985;SDS011;9118;48.122;11.546;2023-07-29T00:32:16;5.03;;;4.10;;
17985;SDS011;9118;48.122;11.546;2023-07-29T00:34:43;4.30;;;3.90;;
17985;SDS011;9118;48.122;11.546;2023-07-29T00:37:10;5.17;;;4.00;;
17985;SDS011;9118;48.122;11.546;2023-07-29T00:39:37;5.90;;;3.87;;
17985;SDS011;9118;48.122;11.546;2023-07-29T00:42:04;5.10;;;3.87;;
17985;SDS011;9118;48.122;11.546;2023-07-29T00:44:35;5.80;;;4.10;;
17985;SDS011;9118;48.122;11.546;2023-07-29T00:47:06;4.53;;;4.07;;
17985;SDS011;9118;48.122;11.546;2023-07-29T00:49:34;4.40;;;3.97;;
17985;SDS011;9118;48.122;11.546;2023-07-29T00:52:01;5.87;;;3.77;;
17985;SDS011;9118;48.122;11.546;2023-07-29T00:54:29;4.10;;;3.70;;
17985;SDS011;9118;48.122;11.546;2023-07-29T00:56:56;5.83;;;3.77;;
17985;SDS011;9118;48.122;11.546;2023-07-29T00:59:23;5.63;;;3.43;;
17985;SDS011;9118;48.122;11.546;2023-07-29T01:01:50;5.40;;;3.90;;
17985;SDS011;9118;48.122;11.546;2023-07-29T01:04:21;3.80;;;3.40;;
17985;SDS011;9118;48.122;11.546;2023-07-29T01:06:50;3.83;;;3.33;;
17985;SDS011;9118;48.122;11.546;2023-07-29T01:09:25;3.87;;;3.20;;
17985;SDS011;9118;48.122;11.546;2023-07-29T01:12:01;4.53;;;3.47;;
17985;SDS011;9118;48.122;11.546;2023-07-29T01:14:39;5.13;;;3.70;;
17985;SDS011;9118;48.122;11.546;2023-07-29T01:17:13;4.17;;;3.37;;
17985;SDS011;9118;48.122;11.546;2023-07-29T01:19:59;3.30;;;3.00;;
17985;SDS011;9118;48.122;11.546;2023-07-29T01:22:31;3.87;;;2.90;;
17985;SDS011;9118;48.122;11.546;2023-07-29T01:25:00;3.37;;;3.07;;
17985;SDS011;9118;48.122;11.546;2023-07-29T01:27:27;3.93;;;3.33;;
17985;SDS011;9118;48.122;11.546;2023-07-29T01:29:56;4.10;;;2.77;;
17985;SDS011;9118;48.122;11.546;2023-07-29T01:32:28;4.37;;;3.40;;
17985;SDS011;9118;48.122;11.546;2023-07-29T01:35:03;3.50;;;3.00;;
17985;SDS011;9118;48.122;11.546;2023-07-29T01:37:38;6.20;;;3.30;;
17985;SDS011;9118;48.122;11.546;2023-07-29T01:40:09;4.27;;;3.00;;
17985;SDS011;9118;48.122;11.546;2023-07-29T01:42:37;5.47;;;4.13;;
17985;SDS011;9118;48.122;11.546;2023-07-29T01:45:04;3.50;;;3.03;;
17985;SDS011;9118;48.122;11.546;2023-07-29T01:47:32;5.07;;;3.10;;
17985;SDS011;9118;48.122;11.546;2023-07-29T01:49:59;4.60;;;3.27;;
17985;SDS011;9118;48.122;11.546;2023-07-29T01:52:26;4.60;;;3.50;;
17985;SDS011;9118;48.122;11.546;2023-07-29T01:54:53;3.70;;;3.40;;
17985;SDS011;9118;48.122;11.546;2023-07-29T01:57:22;3.67;;;3.37;;
17985;SDS011;9118;48.122;11.546;2023-07-29T01:59:49;3.93;;;3.53;;
17985;SDS011;9118;48.122;11.546;2023-07-29T02:02:16;3.90;;;3.03;;
17985;SDS011;9118;48.122;11.546;2023-07-29T02:04:43;3.80;;;3.07;;
17985;SDS011;9118;48.122;11.546;2023-07-29T02:07:16;3.87;;;3.37;;
17985;SDS011;9118;48.122;11.546;2023-07-29T02:09:43;6.03;;;3.17;;
17985;SDS011;9118;48.122;11.546;2023-07-29T02:12:10;3.57;;;3.27;;
17985;SDS011;9118;48.122;11.546;2023-07-29T02:14:39;3.23;;;2.90;;
17985;SDS011;9118;48.122;11.546;2023-07-29T02:17:06;3.73;;;2.97;;
17985;SDS011;9118;48.122;11.546;2023-07-29T02:19:33;3.30;;;3.00;;
17985;SDS011;9118;48.122;11.546;2023-07-29T02:22:01;3.10;;;2.80;;
17985;SDS011;9118;48.122;11.546;2023-07-29T02:24:28;3.43;;;3.10;;
17985;SDS011;9118;48.122;11.546;2023-07-29T02:26:55;3.20;;;2.90;;
17985;SDS011;9118;48.122;11.546;2023-07-29T02:29:22;3.57;;;3.27;;
17985;SDS011;9118;48.122;11.546;2023-07-29T02:31:51;4.43;;;3.20;;
17985;SDS011;9118;48.122;11.546;2023-07-29T02:34:18;3.30;;;3.00;;
17985;SDS011;9118;48.122;11.546;2023-07-29T02:36:45;4.43;;;3.40;;
17985;SDS011;9118;48.122;11.546;2023-07-29T02:39:12;3.97;;;3.30;;
17985;SDS011;9118;48.122;11.546;2023-07-29T02:41:39;4.13;;;3.40;;
17985;SDS011;9118;48.122;11.546;2023-07-29T02:44:06;3.50;;;2.93;;
17985;SDS011;9118;48.122;11.546;2023-07-29T02:46:33;3.53;;;2.97;;
17985;SDS011;9118;48.122;11.546;2023-07-29T02:49:02;3.33;;;3.03;;
17985;SDS011;9118;48.122;11.546;2023-07-29T02:51:32;4.30;;;3.70;;
17985;SDS011;9118;48.122;11.546;2023-07-29T02:53:59;4.97;;;3.67;;
17985;SDS011;9118;48.122;11.546;2023-07-29T02:56:26;5.83;;;3.50;;
17985;SDS011;9118;48.122;11.546;2023-07-29T02:58:53;4.33;;;3.40;;
17985;SDS011;9118;48.122;11.546;2023-07-29T03:01:20;5.00;;;3.70;;
17985;SDS011;9118;48.122;11.546;2023-07-29T03:03:47;4.23;;;3.67;;
17985;SDS011;9118;48.122;11.546;2023-07-29T03:06:15;5.40;;;3.80;;
17985;SDS011;9118;48.122;11.546;2023-07-29T03:08:49;5.80;;;4.13;;
17985;SDS011;9118;48.122;11.546;2023-07-29T03:11:16;5.30;;;3.10;;
17985;SDS011;9118;48.122;11.546;2023-07-29T03:13:43;3.70;;;2.83;;
17985;SDS011;9118;48.122;11.546;2023-07-29T03:16:11;5.00;;;3.30;;
17985;SDS011;9118;48.122;11.546;2023-07-29T03:18:40;3.83;;;3.13;;
17985;SDS011;9118;48.122;11.546;2023-07-29T03:21:07;3.73;;;3.33;;
17985;SDS011;9118;48.122;11.546;2023-07-29T03:23:37;4.07;;;3.10;;
17985;SDS011;9118;48.122;11.546;2023-07-29T03:26:06;5.00;;;3.03;;
17985;SDS011;9118;48.122;11.546;2023-07-29T03:28:36;4.50;;;3.00;;
17985;SDS011;9118;48.122;11.546;2023-07-29T03:31:03;3.30;;;3.00;;
17985;SDS011;9118;48.122;11.546;2023-07-29T03:33:30;4.33;;;3.10;;
17985;SDS011;9118;48.122;11.546;2023-07-29T03:35:57;4.37;;;2.90;;
17985;SDS011;9118;48.122;11.546;2023-07-29T03:38:24;3.63;;;3.10;;
17985;SDS011;9118;48.122;11.546;2023-07-29T03:40:54;2.90;;;2.70;;
17985;SDS011;9118;48.122;11.546;2023-07-29T03:43:21;3.23;;;2.93;;
17985;SDS011;9118;48.122;11.546;2023-07-29T03:45:49;3.90;;;2.80;;
17985;SDS011;9118;48.122;11.546;2023-07-29T03:48:17;3.73;;;2.70;;
17985;SDS011;9118;48.122;11.546;2023-07-29T03:50:44;3.50;;;2.83;;
17985;SDS011;9118;48.122;11.546;2023-07-29T03:53:11;2.73;;;2.53;;
17985;SDS011;9118;48.122;11.546;2023-07-29T03:55:38;4.97;;;3.03;;
17985;SDS011;9118;48.122;11.546;2023-07-29T03:58:06;3.73;;;2.77;;
17985;SDS011;9118;48.122;11.546;2023-07-29T04:00:33;2.70;;;2.50;;
17985;SDS011;9118;48.122;11.546;2023-07-29T04:03:00;2.77;;;2.57;;
17985;SDS011;9118;48.122;11.546;2023-07-29T04:05:27;2.77;;;2.50;;
17985;SDS011;9118;48.122;11.546;2023-07-29T04:07:54;3.33;;;2.50;;
17985;SDS011;9118;48.122;11.546;2023-07-29T04:10:21;3.30;;;2.80;;
17985;SDS011;9118;48.122;11.546;2023-07-29T04:12:49;4.77;;;2.67;;
17985;SDS011;9118;48.122;11.546;2023-07-29T04:15:17;3.47;;;2.50;;
17985;SDS011;9118;48.122;11.546;2023-07-29T04:17:44;3.10;;;2.43;;
17985;SDS011;9118;48.122;11.546;2023-07-29T04:20:13;2.90;;;2.60;;
17985;SDS011;9118;48.122;11.546;2023-07-29T04:22:41;3.13;;;2.47;;
17985;SDS011;9118;48.122;11.546;2023-07-29T04:25:08;3.03;;;2.73;;
17985;SDS011;9118;48.122;11.546;2023-07-29T04:27:35;2.70;;;2.50;;
17985;SDS011;9118;48.122;11.546;2023-07-29T04:30:02;3.43;;;3.13;;
17985;SDS011;9118;48.122;11.546;2023-07-29T04:32:31;2.80;;;2.60;;
17985;SDS011;9118;48.122;11.546;2023-07-29T04:34:57;2.97;;;2.63;;
17985;SDS011;9118;48.122;11.546;2023-07-29T04:37:24;2.87;;;2.53;;
17985;SDS011;9118;48.122;11.546;2023-07-29T04:39:51;4.07;;;2.90;;
17985;SDS011;9118;48.122;11.546;2023-07-29T04:42:18;3.03;;;2.73;;
17985;SDS011;9118;48.122;11.546;2023-07-29T04:44:45;5.37;;;3.30;;
17985;SDS011;9118;48.122;11.546;2023-07-29T04:47:12;3.00;;;2.50;;
17985;SDS011;9118;48.122;11.546;2023-07-29T04:49:41;4.20;;;3.00;;
17985;SDS011;9118;48.122;11.546;2023-07-29T04:52:09;2.80;;;2.60;;
17985;SDS011;9118;48.122;11.546;2023-07-29T04:54:39;2.60;;;2.40;;
17985;SDS011;9118;48.122;11.546;2023-07-29T04:57:06;4.53;;;2.80;;
17985;SDS011;9118;48.122;11.546;2023-07-29T04:59:35;3.07;;;2.77;;
17985;SDS011;9118;48.122;11.546;2023-07-29T05:02:06;2.53;;;2.33;;
17985;SDS011;9118;48.122;11.546;2023-07-29T05:04:33;3.17;;;2.80;;
17985;SDS011;9118;48.122;11.546;2023-07-29T05:07:01;2.17;;;1.97;;
17985;SDS011;9118;48.122;11.546;2023-07-29T05:09:28;3.53;;;2.40;;
17985;SDS011;9118;48.122;11.546;2023-07-29T05:11:55;4.53;;;2.17;;
17985;SDS011;9118;48.122;11.546;2023-07-29T05:14:22;2.80;;;2.40;;
17985;SDS011;9118;48.122;11.546;2023-07-29T05:16:49;3.17;;;2.50;;
17985;SDS011;9118;48.122;11.546;2023-07-29T05:19:16;2.17;;;2.03;;
17985;SDS011;9118;48.122;11.546;2023-07-29T05:21:43;3.17;;;2.10;;
17985;SDS011;9118;48.122;11.546;2023-07-29T05:24:12;2.40;;;2.20;;
17985;SDS011;9118;48.122;11.546;2023-07-29T05:26:39;2.40;;;2.20;;
17985;SDS011;9118;48.122;11.546;2023-07-29T05:29:06;1.93;;;1.83;;
17985;SDS011;9118;48.122;11.546;2023-07-29T05:31:33;2.30;;;2.10;;
17985;SDS011;9118;48.122;11.546;2023-07-29T05:34:00;2.20;;;2.00;;
17985;SDS011;9118;48.122;11.546;2023-07-29T05:36:27;3.30;;;2.23;;
17985;SDS011;9118;48.122;11.546;2023-07-29T05:38:54;2.73;;;2.10;;
17985;SDS011;9118;48.122;11.546;2023-07-29T05:41:26;2.40;;;2.20;;
17985;SDS011;9118;48.122;11.546;2023-07-29T05:43:54;2.47;;;2.27;;
17985;SDS011;9118;48.122;11.546;2023-07-29T05:46:21;3.10;;;2.20;;
17985;SDS011;9118;48.122;11.546;2023-07-29T05:48:48;1.97;;;1.87;;
17985;SDS011;9118;48.122;11.546;2023-07-29T05:51:15;2.30;;;2.10;;
17985;SDS011;9118;48.122;11.546;2023-07-29T05:53:42;5.03;;;2.20;;
17985;SDS011;9118;48.122;11.546;2023-07-29T05:56:09;3.57;;;2.13;;
17985;SDS011;9118;48.122;11.546;2023-07-29T05:58:38;3.07;;;2.20;;
17985;SDS011;9118;48.122;11.546;2023-07-29T06:01:05;2.40;;;2.20;;
17985;SDS011;9118;48.122;11.546;2023-07-29T06:03:32;3.37;;;2.30;;
17985;SDS011;9118;48.122;11.546;2023-07-29T06:06:00;5.17;;;2.47;;
17985;SDS011;9118;48.122;11.546;2023-07-29T06:08:27;2.90;;;2.17;;
17985;SDS011;9118;48.122;11.546;2023-07-29T06:10:54;5.07;;;2.70;;
17985;SDS011;9118;48.122;11.546;2023-07-29T06:13:21;4.00;;;2.70;;
17985;SDS011;9118;48.122;11.546;2023-07-29T06:15:50;4.27;;;2.83;;
17985;SDS011;9118;48.122;11.546;2023-07-29T06:18:20;3.47;;;2.20;;
17985;SDS011;9118;48.122;11.546;2023-07-29T06:20:52;4.03;;;2.30;;
17985;SDS011;9118;48.122;11.546;2023-07-29T06:23:22;2.70;;;2.20;;
17985;SDS011;9118;48.122;11.546;2023-07-29T06:25:49;5.07;;;2.43;;
17985;SDS011;9118;48.122;11.546;2023-07-29T06:28:16;2.93;;;2.60;;
17985;SDS011;9118;48.122;11.546;2023-07-29T06:30:43;2.40;;;2.20;;
17985;SDS011;9118;48.122;11.546;2023-07-29T06:33:11;3.80;;;3.40;;
17985;SDS011;9118;48.122;11.546;2023-07-29T06:35:38;2.70;;;2.33;;
17985;SDS011;9118;48.122;11.546;2023-07-29T06:38:07;2.33;;;2.10;;
17985;SDS011;9118;48.122;11.546;2023-07-29T06:40:34;3.57;;;2.10;;
17985;SDS011;9118;48.122;11.546;2023-07-29T06:43:03;4.83;;;3.10;;
17985;SDS011;9118;48.122;11.546;2023-07-29T06:45:30;2.50;;;2.30;;
17985;SDS011;9118;48.122;11.546;2023-07-29T06:47:57;2.60;;;2.40;;
17985;SDS011;9118;48.122;11.546;2023-07-29T06:50:27;4.97;;;4.13;;
17985;SDS011;9118;48.122;11.546;2023-07-29T06:52:54;2.87;;;2.57;;
17985;SDS011;9118;48.122;11.546;2023-07-29T06:55:26;4.37;;;3.10;;
17985;SDS011;9118;48.122;11.546;2023-07-29T06:57:53;3.33;;;2.67;;
17985;SDS011;9118;48.122;11.546;2023-07-29T07:00:20;2.93;;;2.57;;
17985;SDS011;9118;48.122;11.546;2023-07-29T07:02:49;3.97;;;2.90;;
17985;SDS011;9118;48.122;11.546;2023-07-29T07:05:16;3.27;;;2.50;;
17985;SDS011;9118;48.122;11.546;2023-07-29T07:07:48;3.10;;;2.80;;
17985;SDS011;9118;48.122;11.546;2023-07-29T07:10:15;3.37;;;2.80;;
17985;SDS011;9118;48.122;11.546;2023-07-29T07:12:42;4.10;;;2.80;;
17985;SDS011;9118;48.122;11.546;2023-07-29T07:15:09;3.97;;;3.10;;
17985;SDS011;9118;48.122;11.546;2023-07-29T07:17:36;3.30;;;3.00;;
17985;SDS011;9118;48.122;11.546;2023-07-29T07:20:04;4.53;;;3.57;;
17985;SDS011;9118;48.122;11.546;2023-07-29T07:22:32;4.83;;;3.60;;
17985;SDS011;9118;48.122;11.546;2023-07-29T07:25:00;5.67;;;2.90;;
17985;SDS011;9118;48.122;11.546;2023-07-29T07:27:27;5.30;;;3.13;;
17985;SDS011;9118;48.122;11.546;2023-07-29T07:29:54;3.27;;;2.90;;
17985;SDS011;9118;48.122;11.546;2023-07-29T07:32:21;3.87;;;2.90;;
17985;SDS011;9118;48.122;11.546;2023-07-29T07:34:49;3.40;;;2.80;;
17985;SDS011;9118;48.122;11.546;2023-07-29T07:37:16;5.07;;;3.50;;
17985;SDS011;9118;48.122;11.546;2023-07-29T07:39:43;7.07;;;5.27;;
17985;SDS011;9118;48.122;11.546;2023-07-29T07:42:12;3.40;;;3.07;;
17985;SDS011;9118;48.122;11.546;2023-07-29T07:44:39;4.77;;;4.27;;
17985;SDS011;9118;48.122;11.546;2023-07-29T07:47:06;3.77;;;2.97;;
17985;SDS011;9118;48.122;11.546;2023-07-29T07:49:33;6.63;;;3.60;;
17985;SDS011;9118;48.122;11.546;2023-07-29T07:52:00;4.90;;;3.40;;
17985;SDS011;9118;48.122;11.546;2023-07-29T07:54:27;5.37;;;4.10;;
17985;SDS011;9118;48.122;11.546;2023-07-29T07:56:54;3.40;;;3.10;;
17985;SDS011;9118;48.122;11.546;2023-07-29T07:59:22;3.67;;;3.30;;
17985;SDS011;9118;48.122;11.546;2023-07-29T08:01:49;3.37;;;3.03;;
17985;SDS011;9118;48.122;11.546;2023-07-29T08:04:19;3.77;;;3.17;;
17985;SDS011;9118;48.122;11.546;2023-07-29T08:06:46;4.67;;;2.70;;
17985;SDS011;9118;48.122;11.546;2023-07-29T08:09:13;3.50;;;3.10;;
17985;SDS011;9118;48.122;11.546;2023-07-29T08:11:40;5.30;;;3.50;;
17985;SDS011;9118;48.122;11.546;2023-07-29T08:14:07;5.20;;;3.47;;
17985;SDS011;9118;48.122;11.546;2023-07-29T08:16:37;3.97;;;3.53;;
17985;SDS011;9118;48.122;11.546;2023-07-29T08:19:07;5.43;;;4.20;;
17985;SDS011;9118;48.122;11.546;2023-07-29T08:21:37;3.73;;;3.40;;
17985;SDS011;9118;48.122;11.546;2023-07-29T08:24:04;3.90;;;3.20;;
17985;SDS011;9118;48.122;11.546;2023-07-29T08:26:32;3.50;;;2.97;;
17985;SDS011;9118;48.122;11.546;2023-07-29T08:29:05;5.10;;;3.07;;
17985;SDS011;9118;48.122;11.546;2023-07-29T08:31:36;4.20;;;3.40;;
17985;SDS011;9118;48.122;11.546;2023-07-29T08:34:03;3.93;;;3.37;;
17985;SDS011;9118;48.122;11.546;2023-07-29T08:36:30;4.27;;;3.80;;
17985;SDS011;9118;48.122;11.546;2023-07-29T08:38:57;4.60;;;3.30;;
17985;SDS011;9118;48.122;11.546;2023-07-29T08:41:25;3.27;;;2.97;;
17985;SDS011;9118;48.122;11.546;2023-07-29T08:43:56;3.97;;;3.57;;
17985;SDS011;9118;48.122;11.546;2023-07-29T08:46:32;4.03;;;3.63;;
17985;SDS011;9118;48.122;11.546;2023-07-29T08:49:01;3.87;;;3.47;;
17985;SDS011;9118;48.122;11.546;2023-07-29T08:51:30;4.60;;;3.47;;
17985;SDS011;9118;48.122;11.546;2023-07-29T08:53:58;5.00;;;3.57;;
17985;SDS011;9118;48.122;11.546;2023-07-29T08:56:25;3.83;;;3.30;;
17985;SDS011;9118;48.122;11.546;2023-07-29T08:58:53;3.60;;;3.10;;
17985;SDS011;9118;48.122;11.546;2023-07-29T09:01:25;3.87;;;3.30;;
17985;SDS011;9118;48.122;11.546;2023-07-29T09:03:52;4.03;;;3.20;;
17985;SDS011;9118;48.122;11.546;2023-07-29T09:06:21;4.40;;;3.40;;
17985;SDS011;9118;48.122;11.546;2023-07-29T09:08:51;4.57;;;3.03;;
17985;SDS011;9118;48.122;11.546;2023-07-29T09:11:19;3.23;;;2.80;;
17985;SDS011;9118;48.122;11.546;2023-07-29T09:13:47;4.50;;;3.63;;
17985;SDS011;9118;48.122;11.546;2023-07-29T09:16:14;4.72;;;3.70;;
17985;SDS011;9118;48.122;11.546;2023-07-29T09:18:41;4.55;;;3.90;;
17985;SDS011;9118;48.122;11.546;2023-07-29T09:21:08;4.80;;;3.40;;
17985;SDS011;9118;48.122;11.546;2023-07-29T09:23:40;3.60;;;3.30;;
17985;SDS011;9118;48.122;11.546;2023-07-29T09:26:08;3.80;;;3.40;;
17985;SDS011;9118;48.122;11.546;2023-07-29T09:28:36;4.10;;;3.70;;
17985;SDS011;9118;48.122;11.546;2023-07-29T09:31:05;4.17;;;3.60;;
17985;SDS011;9118;48.122;11.546;2023-07-29T09:33:33;5.00;;;3.83;;
17985;SDS011;9118;48.122;11.546;2023-07-29T09:36:07;4.55;;;3.67;;
17985;SDS011;9118;48.122;11.546;2023-07-29T09:38:35;4.47;;;3.60;;
17985;SDS011;9118;48.122;11.546;2023-07-29T09:41:04;3.70;;;3.35;;
17985;SDS011;9118;48.122;11.546;2023-07-29T09:43:32;4.65;;;3.80;;
17985;SDS011;9118;48.122;11.546;2023-07-29T09:46:00;3.43;;;3.13;;
17985;SDS011;9118;48.122;11.546;2023-07-29T09:48:32;5.33;;;3.50;;
17985;SDS011;9118;48.122;11.546;2023-07-29T09:50:59;4.68;;;3.92;;
17985;SDS011;9118;48.122;11.546;2023-07-29T09:53:26;5.00;;;3.60;;
17985;SDS011;9118;48.122;11.546;2023-07-29T09:55:53;5.03;;;4.00;;
17985;SDS011;9118;48.122;11.546;2023-07-29T09:58:26;4.15;;;3.75;;
17985;SDS011;9118;48.122;11.546;2023-07-29T10:00:53;3.95;;;3.38;;
17985;SDS011;9118;48.122;11.546;2023-07-29T10:03:21;3.87;;;3.53;;
17985;SDS011;9118;48.122;11.546;2023-07-29T10:05:48;4.60;;;3.85;;
17985;SDS011;9118;48.122;11.546;2023-07-29T10:08:16;3.53;;;3.23;;
17985;SDS011;9118;48.122;11.546;2023-07-29T10:10:45;3.97;;;3.58;;
17985;SDS011;9118;48.122;11.546;2023-07-29T10:13:12;4.03;;;3.47;;
17985;SDS011;9118;48.122;11.546;2023-07-29T10:15:41;4.47;;;3.40;;
17985;SDS011;9118;48.122;11.546;2023-07-29T10:18:10;4.18;;;3.72;;
17985;SDS011;9118;48.122;11.546;2023-07-29T10:20:37;4.03;;;3.47;;
17985;SDS011;9118;48.122;11.546;2023-07-29T10:23:06;5.87;;;4.50;;
17985;SDS011;9118;48.122;11.546;2023-07-29T10:25:37;4.85;;;4.35;;
17985;SDS011;9118;48.122;11.546;2023-07-29T10:28:08;4.10;;;3.77;;
17985;SDS011;9118;48.122;11.546;2023-07-29T10:30:38;8.03;;;5.50;;
17985;SDS011;9118;48.122;11.546;2023-07-29T10:33:10;4.60;;;4.00;;
17985;SDS011;9118;48.122;11.546;2023-07-29T10:35:37;3.83;;;3.47;;
17985;SDS011;9118;48.122;11.546;2023-07-29T10:38:05;5.82;;;4.45;;
17985;SDS011;9118;48.122;11.546;2023-07-29T10:40:45;4.17;;;3.87;;
17985;SDS011;9118;48.122;11.546;2023-07-29T10:43:18;3.83;;;3.53;;
17985;SDS011;9118;48.122;11.546;2023-07-29T10:45:50;3.88;;;3.50;;
17985;SDS011;9118;48.122;11.546;2023-07-29T10:51:24;3.60;;;3.33;;
17985;SDS011;9118;48.122;11.546;2023-07-29T10:53:54;3.45;;;3.15;;
17985;SDS011;9118;48.122;11.546;2023-07-29T10:56:26;4.15;;;3.28;;
17985;SDS011;9118;48.122;11.546;2023-07-29T10:58:55;4.30;;;3.90;;
17985;SDS011;9118;48.122;11.546;2023-07-29T11:01:27;4.03;;;3.53;;
17985;SDS011;9118;48.122;11.546;2023-07-29T11:07:03;3.97;;;3.65;;
17985;SDS011;9118;48.122;11.546;2023-07-29T11:09:52;4.05;;;3.72;;
17985;SDS011;9118;48.122;11.546;2023-07-29T11:12:37;3.88;;;3.58;;
17985;SDS011;9118;48.122;11.546;2023-07-29T11:15:14;4.05;;;3.65;;
17985;SDS011;9118;48.122;11.546;2023-07-29T11:17:48;4.35;;;3.95;;
17985;SDS011;9118;48.122;11.546;2023-07-29T11:20:18;6.20;;;3.92;;
17985;SDS011;9118;48.122;11.546;2023-07-29T11:22:46;4.30;;;2.58;;
17985;SDS011;9118;48.122;11.546;2023-07-29T11:25:14;3.23;;;2.47;;
17985;SDS011;9118;48.122;11.546;2023-07-29T11:27:45;2.58;;;2.38;;
17985;SDS011;9118;48.122;11.546;2023-07-29T11:30:13;2.20;;;2.10;;
17985;SDS011;9118;48.122;11.546;2023-07-29T11:32:45;3.87;;;2.40;;
17985;SDS011;9118;48.122;11.546;2023-07-29T11:35:13;2.40;;;2.15;;
17985;SDS011;9118;48.122;11.546;2023-07-29T11:37:44;2.80;;;2.60;;
17985;SDS011;9118;48.122;11.546;2023-07-29T11:40:13;3.10;;;2.13;;
17985;SDS011;9118;48.122;11.546;2023-07-29T11:42:41;2.83;;;2.63;;
17985;SDS011;9118;48.122;11.546;2023-07-29T11:45:10;2.63;;;2.43;;
17985;SDS011;9118;48.122;11.546;2023-07-29T11:47:38;3.65;;;2.67;;
17985;SDS011;9118;48.122;11.546;2023-07-29T11:50:06;2.97;;;2.67;;
17985;SDS011;9118;48.122;11.546;2023-07-29T11:52:35;3.15;;;2.80;;
17985;SDS011;9118;48.122;11.546;2023-07-29T11:55:05;2.83;;;2.63;;
17985;SDS011;9118;48.122;11.546;2023-07-29T11:57:34;2.90;;;2.70;;
17985;SDS011;9118;48.122;11.546;2023-07-29T12:00:02;2.97;;;2.65;;
17985;SDS011;9118;48.122;11.546;2023-07-29T12:02:31;3.17;;;2.88;;
17985;SDS011;9118;48.122;11.546;2023-07-29T12:04:59;3.38;;;2.97;;
17985;SDS011;9118;48.122;11.546;2023-07-29T12:07:27;3.28;;;2.92;;
17985;SDS011;9118;48.122;11.546;2023-07-29T12:09:56;2.83;;;2.53;;
17985;SDS011;9118;48.122;11.546;2023-07-29T12:12:25;3.00;;;2.80;;
17985;SDS011;9118;48.122;11.546;2023-07-29T12:14:53;3.03;;;2.83;;
17985;SDS011;9118;48.122;11.546;2023-07-29T12:17:21;4.13;;;2.80;;
17985;SDS011;9118;48.122;11.546;2023-07-29T12:19:48;3.83;;;3.07;;
17985;SDS011;9118;48.122;11.546;2023-07-29T12:22:17;3.63;;;3.33;;
17985;SDS011;9118;48.122;11.546;2023-07-29T12:24:45;3.50;;;2.97;;
17985;SDS011;9118;48.122;11.546;2023-07-29T12:27:13;3.10;;;2.90;;
17985;SDS011;9118;48.122;11.546;2023-07-29T12:29:44;3.42;;;3.13;;
17985;SDS011;9118;48.122;11.546;2023-07-29T12:32:13;3.67;;;3.07;;
17985;SDS011;9118;48.122;11.546;2023-07-29T12:34:40;5.07;;;3.13;;
17985;SDS011;9118;48.122;11.546;2023-07-29T12:37:09;3.43;;;3.13;;
17985;SDS011;9118;48.122;11.546;2023-07-29T12:39:39;3.58;;;3.00;;
17985;SDS011;9118;48.122;11.546;2023-07-29T12:42:09;3.73;;;3.43;;
17985;SDS011;9118;48.122;11.546;2023-07-29T12:44:37;3.63;;;3.30;;
17985;SDS011;9118;48.122;11.546;2023-07-29T12:47:06;3.85;;;3.55;;
17985;SDS011;9118;48.122;11.546;2023-07-29T12:49:34;3.63;;;3.33;;
17985;SDS011;9118;48.122;11.546;2023-07-29T12:52:04;4.35;;;3.38;;
17985;SDS011;9118;48.122;11.546;2023-07-29T12:54:31;3.60;;;3.30;;
17985;SDS011;9118;48.122;11.546;2023-07-29T12:56:58;3.40;;;3.10;;
17985;SDS011;9118;48.122;11.546;2023-07-29T12:59:25;4.20;;;3.80;;
17985;SDS011;9118;48.122;11.546;2023-07-29T13:01:52;3.83;;;3.53;;
17985;SDS011;9118;48.122;11.546;2023-07-29T13:04:21;3.93;;;3.00;;
17985;SDS011;9118;48.122;11.546;2023-07-29T13:06:51;3.95;;;3.38;;
17985;SDS011;9118;48.122;11.546;2023-07-29T13:09:18;3.55;;;3.25;;
17985;SDS011;9118;48.122;11.546;2023-07-29T13:11:46;3.78;;;3.40;;
17985;SDS011;9118;48.122;11.546;2023-07-29T13:14:13;3.67;;;3.38;;
17985;SDS011;9118;48.122;11.546;2023-07-29T13:16:39;5.50;;;4.20;;
17985;SDS011;9118;48.122;11.546;2023-07-29T13:19:07;11.23;;;5.73;;
17985;SDS011;9118;48.122;11.546;2023-07-29T13:21:35;4.50;;;4.10;;
17985;SDS011;9118;48.122;11.546;2023-07-29T13:24:04;5.03;;;4.20;;
17985;SDS011;9118;48.122;11.546;2023-07-29T13:26:34;5.70;;;4.70;;
17985;SDS011;9118;48.122;11.546;2023-07-29T13:29:01;5.87;;;4.50;;
17985;SDS011;9118;48.122;11.546;2023-07-29T13:31:29;4.73;;;4.33;;
17985;SDS011;9118;48.122;11.546;2023-07-29T13:33:56;5.60;;;4.10;;
17985;SDS011;9118;48.122;11.546;2023-07-29T13:36:23;5.23;;;4.17;;
17985;SDS011;9118;48.122;11.546;2023-07-29T13:38:51;5.87;;;4.53;;
17985;SDS011;9118;48.122;11.546;2023-07-29T13:41:18;6.90;;;4.67;;
17985;SDS011;9118;48.122;11.546;2023-07-29T13:43:45;5.23;;;4.70;;
17985;SDS011;9118;48.122;11.546;2023-07-29T13:46:12;5.03;;;4.50;;
17985;SDS011;9118;48.122;11.546;2023-07-29T13:48:39;5.60;;;5.00;;
17985;SDS011;9118;48.122;11.546;2023-07-29T13:51:06;6.23;;;4.63;;
17985;SDS011;9118;48.122;11.546;2023-07-29T13:53:33;5.40;;;4.90;;
17985;SDS011;9118;48.122;11.546;2023-07-29T13:56:03;5.63;;;4.50;;
17985;SDS011;9118;48.122;11.546;2023-07-29T13:58:35;5.17;;;4.67;;
17985;SDS011;9118;48.122;11.546;2023-07-29T14:01:02;6.67;;;4.87;;
17985;SDS011;9118;48.122;11.546;2023-07-29T14:03:29;6.10;;;4.80;;
17985;SDS011;9118;48.122;11.546;2023-07-29T14:05:56;5.10;;;4.30;;
17985;SDS011;9118;48.122;11.546;2023-07-29T14:08:29;7.00;;;5.10;;
17985;SDS011;9118;48.122;11.546;2023-07-29T14:10:56;4.60;;;4.20;;
17985;SDS011;9118;48.122;11.546;2023-07-29T14:13:24;4.60;;;4.20;;
17985;SDS011;9118;48.122;11.546;2023-07-29T14:15:51;4.27;;;3.87;;
17985;SDS011;9118;48.122;11.546;2023-07-29T14:18:18;5.50;;;3.83;;
17985;SDS011;9118;48.122;11.546;2023-07-29T14:20:47;5.00;;;4.00;;
17985;SDS011;9118;48.122;11.546;2023-07-29T14:23:14;4.90;;;4.30;;
17985;SDS011;9118;48.122;11.546;2023-07-29T14:25:41;4.80;;;4.07;;
17985;SDS011;9118;48.122;11.546;2023-07-29T14:28:08;5.23;;;4.50;;
17985;SDS011;9118;48.122;11.546;2023-07-29T14:30:36;5.37;;;4.20;;
17985;SDS011;9118;48.122;11.546;2023-07-29T14:33:05;6.33;;;4.63;;
17985;SDS011;9118;48.122;11.546;2023-07-29T14:35:33;6.80;;;4.80;;
17985;SDS011;9118;48.122;11.546;2023-07-29T14:38:00;5.40;;;4.77;;
17985;SDS011;9118;48.122;11.546;2023-07-29T14:40:27;5.47;;;4.70;;
17985;SDS011;9118;48.122;11.546;2023-07-29T14:42:55;5.20;;;4.70;;
17985;SDS011;9118;48.122;11.546;2023-07-29T14:45:22;7.07;;;4.50;;
17985;SDS011;9118;48.122;11.546;2023-07-29T14:47:51;6.50;;;4.20;;
17985;SDS011;9118;48.122;11.546;2023-07-29T14:50:18;5.93;;;4.80;;
17985;SDS011;9118;48.122;11.546;2023-07-29T14:52:44;6.63;;;4.30;;
17985;SDS011;9118;48.122;11.546;2023-07-29T14:55:12;4.80;;;4.25;;
17985;SDS011;9118;48.122;11.546;2023-07-29T14:57:39;6.13;;;4.40;;
17985;SDS011;9118;48.122;11.546;2023-07-29T15:00:07;5.13;;;4.50;;